Capitol Logistics 998


FIMP
Sir Seewoosagur Ramgoolam International Airport
Mauritius, MU
VRMM
Malé International Airport
Male, MV

Activity Log

Date Flight Route Aircraft Duration
03/31/2020 CPX998 TAPE1B TAPER G454 GAN R329 ATISA A3B B763 4h 33m
12/22/2019 CPX998 OSKAR1 OSKAR TAPER G454 GAN R329 ATISA ATIS2B B763 4h 25m
11/18/2019 CPX998 Not Available B763 4h 37m

Route Details

Aircraft Information
Primary: Boeing 767-300BDSF
Backup: Not Available
Route Data
Distance: 1742nm
Sched. Duration: 3h 54m
Avg. Duration: 4h 32m (+77m)
Times Flown: 3
Recm'd Route: Not Available
Planned Altitude: 35,000ft
Origin Wx: FIMP 030300Z 14012KT 9999 SCT017 BKN050 23/19 Q1021
Dest. Wx: VRMM 030300Z 20009KT 9999 FEW018TCU SCT280 32/25 Q1010 NOSIG
Notes:

Financial History
Total Freight: 273,627lbs
Average Load: 91,209lbs/flt
Fuel Used: 141,332lbs
Avg. Fuel Used: 47,111lbs/flt
Fuel Expense: $104,586
Avg. Fuel Expense: $34,862
Avg. Fuel Cost: $0.74/lbs
Total Gross Income: $2,687,017
Pilot Pay: $567
Total Expenses: $290,354
Total Revenue: $2,289,312
Average Revenue: $895,672.38